createdAt,value
2023-03-22T00:00:19.398Z,56.44
2023-03-22T00:02:51.356Z,55.98
2023-03-22T00:05:23.031Z,57.38
2023-03-22T00:07:54.795Z,57.94
2023-03-22T00:10:28.126Z,56.76
2023-03-22T00:13:00.713Z,58.12
2023-03-22T00:15:32.705Z,57.92
2023-03-22T00:18:04.576Z,58.90
2023-03-22T00:20:36.144Z,57.46
2023-03-22T00:23:07.907Z,57.59
2023-03-22T00:25:39.512Z,58.34
2023-03-22T00:28:12.290Z,57.61
2023-03-22T00:30:52.271Z,57.27
2023-03-22T00:33:24.802Z,57.77
2023-03-22T00:36:02.368Z,57.70
2023-03-22T00:38:42.123Z,58.12
2023-03-22T00:41:20.458Z,57.72
2023-03-22T00:43:52.193Z,57.82
2023-03-22T00:46:23.865Z,56.87
2023-03-22T00:48:56.114Z,56.90
2023-03-22T00:51:27.781Z,57.70
2023-03-22T00:53:59.405Z,57.56
2023-03-22T00:56:31.115Z,57.88
2023-03-22T00:59:10.165Z,57.37
2023-03-22T01:01:43.062Z,56.98
2023-03-22T01:04:14.638Z,57.88
2023-03-22T01:06:46.258Z,57.73
2023-03-22T01:09:17.917Z,57.30
2023-03-22T01:11:50.805Z,56.76
2023-03-22T01:14:22.989Z,57.04
2023-03-22T01:16:55.201Z,57.89
2023-03-22T01:19:26.910Z,58.32
2023-03-22T01:21:58.644Z,58.50
2023-03-22T01:24:30.678Z,58.32
2023-03-22T01:27:02.338Z,58.42
2023-03-22T01:29:34.164Z,58.10
2023-03-22T01:32:06.151Z,58.38
2023-03-22T01:34:38.004Z,57.22
2023-03-22T01:37:10.628Z,57.14
2023-03-22T01:39:49.012Z,57.24
2023-03-22T01:42:23.544Z,56.95
2023-03-22T01:45:15.462Z,56.81
2023-03-22T01:47:59.270Z,58.29
2023-03-22T01:50:31.322Z,57.97
2023-03-22T01:53:03.856Z,57.52
2023-03-22T01:55:38.178Z,58.51
2023-03-22T01:58:16.721Z,57.97
2023-03-22T02:00:54.649Z,57.70
2023-03-22T02:04:09.926Z,57.85
2023-03-22T02:06:42.889Z,58.29
2023-03-22T02:09:20.861Z,58.21
2023-03-22T02:12:07.935Z,57.43
2023-03-22T02:15:19.482Z,57.06
2023-03-22T02:18:24.948Z,58.05
2023-03-22T02:21:34.605Z,57.62
2023-03-22T02:24:41.681Z,57.47
2023-03-22T02:27:14.819Z,57.65
2023-03-22T02:30:00.269Z,57.61
2023-03-22T02:32:32.056Z,58.37
2023-03-22T02:35:36.786Z,58.30
2023-03-22T02:38:20.760Z,57.67
2023-03-22T02:41:13.947Z,58.74
2023-03-22T02:43:54.863Z,58.42
2023-03-22T02:46:43.211Z,58.74
2023-03-22T02:49:54.761Z,58.28
2023-03-22T02:52:55.712Z,57.89
2023-03-22T02:55:35.561Z,58.45
2023-03-22T02:58:24.910Z,58.56
2023-03-22T03:01:06.872Z,58.21
2023-03-22T03:03:39.842Z,59.27
2023-03-22T03:06:17.548Z,59.18
2023-03-22T03:08:51.030Z,58.10
2023-03-22T03:11:22.925Z,57.82
2023-03-22T03:13:54.593Z,57.89
2023-03-22T03:16:30.717Z,58.27
2023-03-22T03:19:06.219Z,58.26
2023-03-22T03:21:46.224Z,58.87
2023-03-22T03:24:39.968Z,59.57
2023-03-22T03:27:37.365Z,58.65
2023-03-22T03:30:20.919Z,59.00
2023-03-22T03:33:06.649Z,58.41
2023-03-22T03:35:51.486Z,58.24
2023-03-22T03:38:29.078Z,59.52
2023-03-22T03:41:06.604Z,59.69
2023-03-22T03:43:41.141Z,60.79
2023-03-22T03:46:13.134Z,59.43
2023-03-22T03:48:49.506Z,58.99
2023-03-22T03:51:21.149Z,58.61
2023-03-22T03:53:53.034Z,58.74
2023-03-22T03:56:26.745Z,59.39
2023-03-22T03:58:59.573Z,59.10
2023-03-22T04:01:31.349Z,59.37
2023-03-22T04:04:20.555Z,59.11
2023-03-22T04:06:57.609Z,58.32
2023-03-22T04:09:33.996Z,57.64
2023-03-22T04:12:15.026Z,57.61
2023-03-22T04:14:50.484Z,58.95
2023-03-22T04:17:27.688Z,58.78
2023-03-22T04:19:59.422Z,57.75
2023-03-22T04:22:31.332Z,57.25
2023-03-22T04:25:03.563Z,57.69
2023-03-22T04:27:35.805Z,58.01
2023-03-22T04:30:15.215Z,57.67
2023-03-22T04:33:06.242Z,57.25
2023-03-22T04:35:54.195Z,58.88
2023-03-22T04:38:26.153Z,57.75
2023-03-22T04:40:59.532Z,58.41
2023-03-22T04:43:45.053Z,58.05
2023-03-22T04:46:18.779Z,59.42
2023-03-22T04:49:07.819Z,57.95
2023-03-22T04:51:43.890Z,57.48
2023-03-22T04:54:38.543Z,57.29
2023-03-22T04:57:11.387Z,59.48
2023-03-22T04:59:47.887Z,58.40
2023-03-22T05:02:19.653Z,57.92
2023-03-22T05:04:54.835Z,57.94
2023-03-22T05:07:45.746Z,58.14
2023-03-22T05:10:17.521Z,58.57
2023-03-22T05:12:49.372Z,60.34
2023-03-22T05:15:30.048Z,60.51
2023-03-22T05:18:03.874Z,60.48
2023-03-22T05:20:35.594Z,58.39
2023-03-22T05:23:20.451Z,60.34
2023-03-22T05:25:56.273Z,58.99
2023-03-22T05:28:29.169Z,58.75
2023-03-22T05:31:09.355Z,58.17
2023-03-22T05:33:49.583Z,59.29
2023-03-22T05:36:24.040Z,59.17
2023-03-22T05:39:18.412Z,58.86
2023-03-22T05:41:50.266Z,58.83
2023-03-22T05:44:22.080Z,58.14
2023-03-22T05:47:03.938Z,58.09
2023-03-22T05:49:39.564Z,57.70
2023-03-22T05:52:12.013Z,58.02
2023-03-22T05:55:07.222Z,57.87
2023-03-22T05:57:40.156Z,57.24
2023-03-22T06:00:15.463Z,53.58
2023-03-22T06:03:14.643Z,47.50
2023-03-22T06:05:51.638Z,45.46
2023-03-22T06:08:26.742Z,44.67
2023-03-22T06:10:58.855Z,42.00
2023-03-22T06:13:31.651Z,40.12
2023-03-22T06:16:04.872Z,38.65
2023-03-22T06:18:36.958Z,43.42
2023-03-22T06:21:13.789Z,46.49
2023-03-22T06:23:46.441Z,47.11
2023-03-22T06:26:18.359Z,47.74
2023-03-22T06:28:51.010Z,49.20
2023-03-22T06:31:23.641Z,45.41
2023-03-22T06:34:07.002Z,40.29
2023-03-22T06:36:43.548Z,36.45
2023-03-22T06:39:18.810Z,34.84
2023-03-22T06:41:51.541Z,35.96
2023-03-22T06:44:23.368Z,32.73
2023-03-22T06:46:55.096Z,30.46
2023-03-22T06:49:38.797Z,31.34
2023-03-22T06:52:10.439Z,31.42
2023-03-22T06:54:42.247Z,30.25
2023-03-22T06:57:14.927Z,29.54
2023-03-22T06:59:46.520Z,27.56
2023-03-22T07:02:18.131Z,27.38
2023-03-22T07:05:09.682Z,24.56
2023-03-22T07:07:41.399Z,23.46
2023-03-22T07:10:13.330Z,23.80
2023-03-22T07:12:44.945Z,24.46
2023-03-22T07:15:20.093Z,23.60
2023-03-22T07:18:04.033Z,24.02
2023-03-22T07:20:38.387Z,23.89
2023-03-22T07:23:10.382Z,24.83
2023-03-22T07:25:49.980Z,23.15
2023-03-22T07:28:27.921Z,22.39
2023-03-22T07:31:04.747Z,22.54
2023-03-22T07:33:46.810Z,24.11
2023-03-22T07:36:18.602Z,26.23
2023-03-22T07:38:51.504Z,27.48
2023-03-22T07:41:29.472Z,27.28
2023-03-22T07:44:21.913Z,28.74
2023-03-22T07:47:07.901Z,30.90
2023-03-22T07:49:54.024Z,31.67
2023-03-22T07:52:30.969Z,31.72
2023-03-22T07:55:04.802Z,32.95
2023-03-22T07:57:37.380Z,31.65
2023-03-22T08:00:10.132Z,32.15
2023-03-22T08:02:50.652Z,31.80
2023-03-22T08:05:43.366Z,32.76
2023-03-22T08:08:18.910Z,34.44
2023-03-22T08:10:52.109Z,34.08
2023-03-22T08:13:23.995Z,34.02
2023-03-22T08:15:56.173Z,34.12
2023-03-22T08:18:29.060Z,34.77
2023-03-22T08:21:01.095Z,35.19
2023-03-22T08:23:41.901Z,39.47
2023-03-22T08:26:37.362Z,40.60
2023-03-22T08:29:18.600Z,42.18
2023-03-22T08:31:52.441Z,44.63
2023-03-22T08:34:24.158Z,45.25
2023-03-22T08:36:56.909Z,46.22
2023-03-22T08:39:28.696Z,46.88
2023-03-22T08:42:18.932Z,45.55
2023-03-22T08:44:52.628Z,46.42
2023-03-22T08:47:26.562Z,46.62
2023-03-22T08:50:04.783Z,46.84
2023-03-22T08:52:45.456Z,45.27
2023-03-22T08:55:38.192Z,45.34
2023-03-22T08:58:16.754Z,43.06
2023-03-22T09:01:26.371Z,41.31
2023-03-22T09:04:04.675Z,40.51
2023-03-22T09:06:36.414Z,39.44
2023-03-22T09:09:08.073Z,38.15
2023-03-22T09:11:40.969Z,37.18
2023-03-22T09:14:12.667Z,38.38
2023-03-22T09:16:44.295Z,36.62
2023-03-22T09:19:15.997Z,37.08
2023-03-22T09:21:47.605Z,36.40
2023-03-22T09:24:24.292Z,36.95
2023-03-22T09:26:58.836Z,38.35
2023-03-22T09:32:23.883Z,39.23
2023-03-22T09:35:02.709Z,38.70
2023-03-22T09:37:43.555Z,38.45
2023-03-22T09:40:16.706Z,37.49
2023-03-22T09:42:54.508Z,36.09
2023-03-22T09:45:41.329Z,38.56
2023-03-22T09:48:31.275Z,37.70
2023-03-22T09:51:05.960Z,35.18
2023-03-22T09:53:37.604Z,37.42
2023-03-22T09:56:26.011Z,40.16
2023-03-22T09:59:08.674Z,40.48
2023-03-22T10:01:46.094Z,39.47
2023-03-22T10:04:47.320Z,38.91
2023-03-22T10:07:40.233Z,39.61
2023-03-22T10:10:20.011Z,38.63
2023-03-22T10:13:12.018Z,39.03
2023-03-22T10:15:47.985Z,36.68
2023-03-22T10:18:36.647Z,38.48
2023-03-22T10:21:11.487Z,39.99
2023-03-22T10:24:05.076Z,39.80
2023-03-22T10:26:40.491Z,38.26
2023-03-22T10:29:22.072Z,37.80
2023-03-22T10:31:54.636Z,38.69
2023-03-22T10:34:29.577Z,38.79
2023-03-22T10:37:06.060Z,40.38
2023-03-22T10:39:46.078Z,41.30
2023-03-22T10:42:28.089Z,40.36
2023-03-22T10:45:08.481Z,38.12
2023-03-22T10:47:52.830Z,38.75
2023-03-22T10:50:30.477Z,37.59
2023-03-22T10:53:26.930Z,36.73
2023-03-22T10:55:59.066Z,39.45
2023-03-22T10:58:33.387Z,37.70
2023-03-22T11:01:11.449Z,37.48
2023-03-22T11:03:44.552Z,37.35
2023-03-22T11:06:28.869Z,37.22
2023-03-22T11:09:10.414Z,37.21
2023-03-22T11:11:54.325Z,35.99
2023-03-22T11:14:42.679Z,38.88
2023-03-22T11:17:22.515Z,38.11
2023-03-22T11:19:54.087Z,38.08
2023-03-22T11:22:39.987Z,38.51
2023-03-22T11:25:22.573Z,39.67
2023-03-22T11:28:05.264Z,38.14
2023-03-22T11:30:37.249Z,38.55
2023-03-22T11:33:08.874Z,35.70
2023-03-22T11:35:45.827Z,37.18
2023-03-22T11:38:41.216Z,35.63
2023-03-22T11:41:32.044Z,35.16
2023-03-22T11:44:14.133Z,33.82
2023-03-22T11:46:56.030Z,35.64
2023-03-22T11:49:47.563Z,35.08
2023-03-22T11:52:24.945Z,35.75
2023-03-22T11:55:00.789Z,35.04
2023-03-22T11:57:36.143Z,34.45
2023-03-22T12:00:32.895Z,36.01
2023-03-22T12:03:19.896Z,36.25
2023-03-22T12:05:53.254Z,34.65
2023-03-22T12:08:49.655Z,35.62
2023-03-22T12:11:31.402Z,35.51
2023-03-22T12:14:25.890Z,35.27
2023-03-22T12:17:05.134Z,35.34
2023-03-22T12:19:50.287Z,35.51
2023-03-22T12:22:33.581Z,35.89
2023-03-22T12:25:12.557Z,36.41
2023-03-22T12:27:51.041Z,35.45
2023-03-22T12:30:31.731Z,36.14
2023-03-22T12:33:27.080Z,34.59
2023-03-22T12:36:04.129Z,35.24
2023-03-22T12:38:44.769Z,35.88
2023-03-22T12:41:24.975Z,36.40
2023-03-22T12:44:38.142Z,37.96
2023-03-22T12:47:12.914Z,38.33
2023-03-22T12:49:50.966Z,36.99
2023-03-22T12:52:37.618Z,37.06
2023-03-22T12:55:24.948Z,38.59
2023-03-22T12:57:57.538Z,39.25
2023-03-22T13:00:36.370Z,38.11
2023-03-22T13:03:17.004Z,37.31
2023-03-22T13:05:59.335Z,37.24
2023-03-22T13:09:10.207Z,37.71
2023-03-22T13:11:47.163Z,36.00
2023-03-22T13:14:49.898Z,35.97
2023-03-22T13:17:24.527Z,35.73
2023-03-22T13:20:21.085Z,35.65
2023-03-22T13:22:52.663Z,36.36
2023-03-22T13:25:33.637Z,37.27
2023-03-22T13:28:27.041Z,37.43
2023-03-22T13:30:59.080Z,36.01
2023-03-22T13:33:36.702Z,35.85
2023-03-22T13:36:24.287Z,38.23
2023-03-22T13:38:59.862Z,35.68
2023-03-22T13:41:34.624Z,36.53
2023-03-22T13:44:35.702Z,37.69
2023-03-22T13:47:33.761Z,35.99
2023-03-22T13:50:27.793Z,36.85
2023-03-22T13:53:07.702Z,38.03
2023-03-22T13:55:51.148Z,36.90
2023-03-22T13:58:50.572Z,36.95
2023-03-22T14:01:26.727Z,36.82
2023-03-22T14:04:02.080Z,36.84
2023-03-22T14:06:49.401Z,36.52
2023-03-22T14:09:29.771Z,35.69
2023-03-22T14:12:19.110Z,35.39
2023-03-22T14:14:56.913Z,36.60
2023-03-22T14:17:47.054Z,34.65
2023-03-22T14:20:22.659Z,34.72
